Time,TemperatureF,DewpointF,PressureIn,WindDirection,WindDirectionDegrees,WindSpeedMPH,WindSpeedGustMPH,Humidity,HourlyPrecipIn,Conditions,Clouds,dailyrainin,SoftwareType,DateUTC
2013-04-01 00:12:00,55.0,54.0,-100.00,SW,233,0.0,0.0,98,0.00,,,0.51,,2013-04-01 05:12:00,
2013-04-01 00:22:00,55.0,54.0,-100.00,SW,233,0.0,0.0,98,0.00,,,0.51,,2013-04-01 05:22:00,
2013-04-01 00:32:00,55.0,54.0,-100.00,SW,233,0.0,0.0,98,0.00,,,0.51,,2013-04-01 05:32:00,
2013-04-01 00:42:00,55.0,54.0,-100.00,SW,233,0.0,0.0,98,0.00,,,0.51,,2013-04-01 05:42:00,
2013-04-01 01:12:00,55.0,54.0,-100.00,SSE,168,0.0,0.0,98,0.00,,,0.51,,2013-04-01 06:12:00,
2013-04-01 01:23:00,55.0,54.0,-100.00,SSE,168,0.0,0.0,98,0.00,,,0.51,,2013-04-01 06:23:00,
2013-04-01 01:33:00,55.0,54.0,-100.00,SSE,168,0.0,0.0,98,0.00,,,0.51,,2013-04-01 06:33:00,
2013-04-01 01:43:00,55.0,54.0,-100.00,SSE,168,0.0,0.0,98,0.00,,,0.51,,2013-04-01 06:43:00,
2013-04-01 02:12:00,55.0,54.0,-100.00,NNW,330,0.0,0.0,98,0.00,,,0.51,,2013-04-01 07:12:00,
2013-04-01 02:22:00,55.0,54.0,-100.00,NNW,330,0.0,0.0,98,0.00,,,0.51,,2013-04-01 07:22:00,
2013-04-01 02:32:00,55.0,54.0,-100.00,NNW,330,0.0,0.0,98,0.00,,,0.51,,2013-04-01 07:32:00,
2013-04-01 02:42:00,55.0,54.0,-100.00,NNW,330,0.0,0.0,98,0.00,,,0.51,,2013-04-01 07:42:00,
2013-04-01 03:12:00,53.0,52.0,-100.00,NNW,339,0.0,0.0,98,0.00,,,0.51,,2013-04-01 08:12:00,
2013-04-01 03:22:00,53.0,52.0,-100.00,NNW,339,0.0,0.0,98,0.00,,,0.51,,2013-04-01 08:22:00,
2013-04-01 03:32:00,53.0,52.0,-100.00,NNW,339,0.0,0.0,98,0.00,,,0.51,,2013-04-01 08:32:00,
2013-04-01 03:43:00,53.0,52.0,-100.00,NNW,339,0.0,0.0,98,0.00,,,0.51,,2013-04-01 08:43:00,
2013-04-01 04:12:00,56.0,56.0,-100.00,NNW,328,0.0,0.0,99,0.00,,,0.51,,2013-04-01 09:12:00,
2013-04-01 04:22:00,56.0,56.0,-100.00,NNW,328,0.0,0.0,99,0.00,,,0.51,,2013-04-01 09:22:00,
2013-04-01 04:33:00,56.0,56.0,-100.00,NNW,328,0.0,0.0,99,0.00,,,0.51,,2013-04-01 09:33:00,
2013-04-01 04:42:00,56.0,56.0,-100.00,NNW,328,0.0,0.0,99,0.00,,,0.51,,2013-04-01 09:42:00,
2013-04-01 05:12:00,57.0,57.0,-100.00,North,7,2.0,6.0,99,0.00,,,0.51,,2013-04-01 10:12:00,
2013-04-01 05:23:00,57.0,57.0,-100.00,North,7,2.0,6.0,99,0.00,,,0.51,,2013-04-01 10:23:00,
2013-04-01 05:33:00,57.0,57.0,-100.00,North,7,2.0,6.0,99,0.00,,,0.51,,2013-04-01 10:33:00,
2013-04-01 05:42:00,57.0,57.0,-100.00,North,7,2.0,6.0,99,0.00,,,0.51,,2013-04-01 10:42:00,
2013-04-01 06:13:00,57.0,57.0,-100.00,NW,312,0.0,0.0,99,0.00,,,0.51,,2013-04-01 11:13:00,
2013-04-01 06:23:00,57.0,57.0,-100.00,NW,312,0.0,0.0,99,0.00,,,0.51,,2013-04-01 11:23:00,
2013-04-01 06:33:00,57.0,57.0,-100.00,NW,312,0.0,0.0,99,0.00,,,0.51,,2013-04-01 11:33:00,
2013-04-01 06:42:00,57.0,57.0,-100.00,NW,312,0.0,0.0,99,0.00,,,0.51,,2013-04-01 11:42:00,
2013-04-01 07:12:00,56.0,56.0,-100.00,WSW,258,0.0,0.0,99,0.00,,,0.51,,2013-04-01 12:12:00,
2013-04-01 07:23:00,56.0,56.0,-100.00,WSW,258,0.0,0.0,99,0.00,,,0.51,,2013-04-01 12:23:00,
2013-04-01 07:32:00,56.0,56.0,-100.00,WSW,258,0.0,0.0,99,0.00,,,0.51,,2013-04-01 12:32:00,
2013-04-01 07:42:00,56.0,56.0,-100.00,WSW,258,0.0,0.0,99,0.00,,,0.51,,2013-04-01 12:42:00,
2013-04-01 08:12:00,56.0,56.0,-100.00,WNW,284,0.0,0.0,99,0.00,,,0.51,,2013-04-01 13:12:00,
2013-04-01 08:22:00,56.0,56.0,-100.00,WNW,284,0.0,0.0,99,0.00,,,0.51,,2013-04-01 13:22:00,
2013-04-01 08:32:00,56.0,56.0,-100.00,WNW,284,0.0,0.0,99,0.00,,,0.51,,2013-04-01 13:32:00,
2013-04-01 08:42:00,56.0,56.0,-100.00,WNW,284,0.0,0.0,99,0.00,,,0.51,,2013-04-01 13:42:00,
2013-04-01 09:12:00,57.0,57.0,-100.00,SSW,201,0.0,0.0,99,0.00,,,0.51,,2013-04-01 14:12:00,
2013-04-01 09:22:00,57.0,57.0,-100.00,SSW,201,0.0,0.0,99,0.00,,,0.51,,2013-04-01 14:22:00,
2013-04-01 09:33:00,57.0,57.0,-100.00,SSW,201,0.0,0.0,99,0.00,,,0.51,,2013-04-01 14:33:00,
2013-04-01 09:42:00,57.0,57.0,-100.00,SSW,201,0.0,0.0,99,0.00,,,0.51,,2013-04-01 14:42:00,
2013-04-01 10:13:00,60.0,59.0,-100.00,ENE,74,0.0,1.0,98,0.00,,,0.51,,2013-04-01 15:13:00,
2013-04-01 10:22:00,60.0,59.0,-100.00,ENE,74,0.0,1.0,98,0.00,,,0.51,,2013-04-01 15:22:00,
2013-04-01 10:34:00,60.0,59.0,-100.00,ENE,74,0.0,1.0,98,0.00,,,0.51,,2013-04-01 15:34:00,
2013-04-01 10:43:00,60.0,59.0,-100.00,ENE,74,0.0,1.0,98,0.00,,,0.51,,2013-04-01 15:43:00,
2013-04-01 11:13:00,62.0,59.0,-100.00,East,82,5.0,8.0,91,0.00,,,0.51,,2013-04-01 16:13:00,
2013-04-01 11:23:00,62.0,59.0,-100.00,East,82,5.0,8.0,91,0.00,,,0.51,,2013-04-01 16:23:00,
2013-04-01 11:33:00,62.0,59.0,-100.00,East,82,5.0,8.0,91,0.00,,,0.51,,2013-04-01 16:33:00,
2013-04-01 11:42:00,62.0,59.0,-100.00,East,82,5.0,8.0,91,0.00,,,0.51,,2013-04-01 16:42:00,
2013-04-01 13:12:00,71.0,50.0,-100.00,ENE,58,6.0,10.0,48,-99.99,,,0.51,,2013-04-01 18:12:00,
2013-04-01 13:22:00,71.0,50.0,-100.00,ENE,58,6.0,10.0,48,-99.99,,,0.51,,2013-04-01 18:22:00,
2013-04-01 13:32:00,71.0,50.0,-100.00,ENE,58,6.0,10.0,48,-99.99,,,0.51,,2013-04-01 18:32:00,
2013-04-01 13:42:00,71.0,50.0,-100.00,ENE,58,6.0,10.0,48,-99.99,,,0.51,,2013-04-01 18:42:00,
2013-04-01 14:13:00,73.0,54.0,-100.00,ESE,107,4.0,9.0,52,0.00,,,0.25,,2013-04-01 19:13:00,
2013-04-01 14:23:00,73.0,54.0,-100.00,ESE,107,4.0,9.0,52,0.00,,,0.25,,2013-04-01 19:23:00,
2013-04-01 14:32:00,73.0,54.0,-100.00,ESE,107,4.0,9.0,52,0.00,,,0.25,,2013-04-01 19:32:00,
2013-04-01 14:42:00,73.0,54.0,-100.00,ESE,107,4.0,9.0,52,0.00,,,0.25,,2013-04-01 19:42:00,
2013-04-01 15:13:00,75.0,51.0,-100.00,ESE,102,4.0,10.0,43,0.00,,,0.17,,2013-04-01 20:13:00,
2013-04-01 15:22:00,75.0,51.0,-100.00,ESE,102,4.0,10.0,43,0.00,,,0.17,,2013-04-01 20:22:00,
2013-04-01 15:32:00,75.0,51.0,-100.00,ESE,102,4.0,10.0,43,0.00,,,0.17,,2013-04-01 20:32:00,
2013-04-01 15:42:00,75.0,51.0,-100.00,ESE,102,4.0,10.0,43,0.00,,,0.17,,2013-04-01 20:42:00,
2013-04-01 16:12:00,77.0,48.0,-100.00,ESE,102,5.0,11.0,36,0.00,,,0.03,,2013-04-01 21:12:00,
2013-04-01 16:23:00,77.0,48.0,-100.00,ESE,102,5.0,11.0,36,0.00,,,0.03,,2013-04-01 21:23:00,
2013-04-01 16:32:00,77.0,48.0,-100.00,ESE,102,5.0,11.0,36,0.00,,,0.03,,2013-04-01 21:32:00,
2013-04-01 16:43:00,77.0,48.0,-100.00,ESE,102,5.0,11.0,36,0.00,,,0.03,,2013-04-01 21:43:00,
2013-04-01 17:12:00,77.0,46.0,-100.00,ENE,77,0.0,0.0,34,0.00,,,0.00,,2013-04-01 22:12:00,
2013-04-01 17:22:00,77.0,46.0,-100.00,ENE,77,0.0,0.0,34,0.00,,,0.00,,2013-04-01 22:22:00,
2013-04-01 17:33:00,77.0,46.0,-100.00,ENE,77,0.0,0.0,34,0.00,,,0.00,,2013-04-01 22:33:00,
2013-04-01 17:43:00,77.0,46.0,-100.00,ENE,77,0.0,0.0,34,0.00,,,0.00,,2013-04-01 22:43:00,
2013-04-01 18:12:00,77.0,45.0,-100.00,East,80,2.0,8.0,32,0.00,,,0.00,,2013-04-01 23:12:00,
2013-04-01 18:23:00,77.0,45.0,-100.00,East,80,2.0,8.0,32,0.00,,,0.00,,2013-04-01 23:23:00,
2013-04-01 18:32:00,77.0,45.0,-100.00,East,80,2.0,8.0,32,0.00,,,0.00,,2013-04-01 23:32:00,
2013-04-01 18:43:00,77.0,45.0,-100.00,East,80,2.0,8.0,32,0.00,,,0.00,,2013-04-01 23:43:00,
2013-04-01 19:12:00,75.0,42.0,-100.00,East,82,3.0,6.0,31,0.00,,,0.00,,2013-04-02 00:12:00,
2013-04-01 19:22:00,75.0,42.0,-100.00,East,82,3.0,6.0,31,0.00,,,0.00,,2013-04-02 00:22:00,
2013-04-01 19:33:00,75.0,42.0,-100.00,East,82,3.0,6.0,31,0.00,,,0.00,,2013-04-02 00:33:00,
2013-04-01 19:42:00,75.0,42.0,-100.00,East,82,3.0,6.0,31,0.00,,,0.00,,2013-04-02 00:42:00,
2013-04-01 20:12:00,64.0,50.0,-100.00,SSW,209,0.0,0.0,60,0.00,,,0.00,,2013-04-02 01:12:00,
2013-04-01 20:22:00,64.0,50.0,-100.00,SSW,209,0.0,0.0,60,0.00,,,0.00,,2013-04-02 01:22:00,
2013-04-01 20:32:00,64.0,50.0,-100.00,SSW,209,0.0,0.0,60,0.00,,,0.00,,2013-04-02 01:32:00,
2013-04-01 20:42:00,64.0,50.0,-100.00,SSW,209,0.0,0.0,60,0.00,,,0.00,,2013-04-02 01:42:00,
2013-04-01 21:12:00,57.0,51.0,-100.00,South,180,0.0,0.0,80,0.00,,,0.00,,2013-04-02 02:12:00,
2013-04-01 21:22:00,57.0,51.0,-100.00,South,180,0.0,0.0,80,0.00,,,0.00,,2013-04-02 02:22:00,
2013-04-01 21:32:00,57.0,51.0,-100.00,South,180,0.0,0.0,80,0.00,,,0.00,,2013-04-02 02:32:00,
2013-04-01 21:42:00,57.0,51.0,-100.00,South,180,0.0,0.0,80,0.00,,,0.00,,2013-04-02 02:42:00,
2013-04-01 22:12:00,54.0,51.0,-100.00,East,90,0.0,0.0,90,0.00,,,0.00,,2013-04-02 03:12:00,
2013-04-01 22:22:00,54.0,51.0,-100.00,East,90,0.0,0.0,90,0.00,,,0.00,,2013-04-02 03:22:00,
2013-04-01 22:33:00,54.0,51.0,-100.00,East,90,0.0,0.0,90,0.00,,,0.00,,2013-04-02 03:33:00,
2013-04-01 22:43:00,54.0,51.0,-100.00,East,90,0.0,0.0,90,0.00,,,0.00,,2013-04-02 03:43:00,
2013-04-01 23:13:00,52.0,51.0,-100.00,SSW,212,0.0,0.0,95,0.00,,,0.00,,2013-04-02 04:13:00,
2013-04-01 23:23:00,52.0,51.0,-100.00,SSW,212,0.0,0.0,95,0.00,,,0.00,,2013-04-02 04:23:00,
2013-04-01 23:32:00,52.0,51.0,-100.00,SSW,212,0.0,0.0,95,0.00,,,0.00,,2013-04-02 04:32:00,
2013-04-01 23:43:00,52.0,51.0,-100.00,SSW,212,0.0,0.0,95,0.00,,,0.00,,2013-04-02 04:43:00,